This is the latest recevied weather packets stored in our database for station/object N4CRH-13. If no packets are shown the sender has not sent any weather packets the latest 1 day(s).
| Time | Temp. | Humidity | Pressure | Rain* | Wind** | Luminosity | Snow |
|---|---|---|---|---|---|---|---|
| 1777998213 | 0.56° C | 99% | 1291.5 hPa | 0 mm | 2.24 m/s, 290° | 78 W/m² | - |
| 1777997905 | 0.56° C | 99% | 1291.5 hPa | 0 mm | 2.68 m/s, 277° | 71 W/m² | - |
| 1777997603 | 0.56° C | 99% | 1291.4 hPa | 0 mm | 2.24 m/s, 277° | 79 W/m² | - |
| 1777997300 | 0.56° C | 99% | 1291.5 hPa | 0 mm | 2.24 m/s, 309° | 86 W/m² | - |
| 1777996997 | 0.56° C | 99% | 1291.3 hPa | 0 mm | 2.24 m/s, 301° | 63 W/m² | - |
| 1777996693 | 0.56° C | 99% | 1291.7 hPa | 0 mm | 2.24 m/s, 296° | 65 W/m² | - |
| 1777996389 | 0.56° C | 99% | 1291.5 hPa | 0 mm | 2.24 m/s, 286° | 54 W/m² | - |
| 1777996086 | 0.56° C | 99% | 1291.8 hPa | 0 mm | 1.79 m/s, 293° | 67 W/m² | - |
| 1777995782 | 0.56° C | 99% | 1291.5 hPa | 0 mm | 1.79 m/s, 298° | 57 W/m² | - |
| 1777995478 | 0° C | 99% | 1291.5 hPa | 0 mm | 1.79 m/s, 297° | 61 W/m² | - |
| 1777995176 | 0.56° C | 99% | 1291.7 hPa | 0 mm | 3.13 m/s, 293° | 64 W/m² | - |
| 1777994873 | 0.56° C | 99% | 1291.8 hPa | 0 mm | 2.68 m/s, 295° | 61 W/m² | - |
| 1777994570 | 0.56° C | 99% | 1291.7 hPa | 0 mm | 2.68 m/s, 288° | 57 W/m² | - |
| 1777994264 | 0.56° C | 99% | 1291.7 hPa | 0 mm | 1.79 m/s, 281° | 47 W/m² | - |
| 1777993962 | 0.56° C | 99% | 1291.7 hPa | 0 mm | 3.13 m/s, 299° | 45 W/m² | - |
| 1777993659 | 0.56° C | 99% | 1291.8 hPa | 0 mm | 2.24 m/s, 292° | 47 W/m² | - |
| 1777993356 | 0.56° C | 99% | 1291.8 hPa | 0 mm | 2.68 m/s, 282° | 41 W/m² | - |
| 1777993055 | 0.56° C | 99% | 1291.5 hPa | 0 mm | 3.58 m/s, 289° | 39 W/m² | - |
| 1777992754 | 0.56° C | 99% | 1291.5 hPa | 0 mm | 3.13 m/s, 250° | 32 W/m² | - |
| 1777992451 | 0.56° C | 99% | 1291.7 hPa | 0 mm | 3.13 m/s, 291° | 28 W/m² | - |
| 1777992150 | 0.56° C | 99% | 1291.8 hPa | 0 mm | 3.13 m/s, 298° | 24 W/m² | - |
| 1777991846 | 0.56° C | 99% | 1291.9 hPa | 0 mm | 2.68 m/s, 304° | 24 W/m² | - |
| 1777991543 | 0.56° C | 99% | 1291.7 hPa | 0 mm | 3.58 m/s, 284° | 17 W/m² | - |
| 1777991240 | 0.56° C | 99% | 1291.8 hPa | 0 mm | 3.13 m/s, 301° | 25 W/m² | - |
| 1777990938 | 0.56° C | 99% | 1292 hPa | 0 mm | 2.68 m/s, 294° | 27 W/m² | - |
* Rain latest hour (hover to see other rain measurements)
** Current wind speed in m/s (hover to see current wind gust speed)